sensor_id;sensor_type;location;lat;lon;timestamp;temperature;humidity
43627;DHT22;29217;52.586;13.442;2024-01-30T10:27:33;5.80;99.90
43627;DHT22;29217;52.586;13.442;2024-01-30T10:29:58;5.80;99.90
43627;DHT22;29217;52.586;13.442;2024-01-30T10:32:25;5.90;99.90
43627;DHT22;29217;52.586;13.442;2024-01-30T10:34:51;6.10;99.90
43627;DHT22;29217;52.586;13.442;2024-01-30T10:37:17;6.00;99.90
43627;DHT22;29217;52.586;13.442;2024-01-30T10:39:45;6.20;99.90
43627;DHT22;29217;52.586;13.442;2024-01-30T10:42:18;6.20;99.90
43627;DHT22;29217;52.586;13.442;2024-01-30T10:47:34;6.10;99.90
43627;DHT22;29217;52.586;13.442;2024-01-30T10:50:04;6.50;99.90
43627;DHT22;29217;52.586;13.442;2024-01-30T10:52:29;6.30;99.90
43627;DHT22;29217;52.586;13.442;2024-01-30T10:54:56;6.40;99.90
43627;DHT22;29217;52.586;13.442;2024-01-30T10:57:26;6.60;99.90
43627;DHT22;29217;52.586;13.442;2024-01-30T10:59:59;6.80;99.90
43627;DHT22;29217;52.586;13.442;2024-01-30T11:02:26;6.60;99.90
43627;DHT22;29217;52.586;13.442;2024-01-30T11:04:57;6.70;99.90
43627;DHT22;29217;52.586;13.442;2024-01-30T11:07:29;6.90;99.90
43627;DHT22;29217;52.586;13.442;2024-01-30T11:12:24;7.00;99.90
43627;DHT22;29217;52.586;13.442;2024-01-30T11:19:54;6.70;99.90
43627;DHT22;29217;52.586;13.442;2024-01-30T11:22:20;7.20;99.90
43627;DHT22;29217;52.586;13.442;2024-01-30T11:24:47;7.00;99.90
43627;DHT22;29217;52.586;13.442;2024-01-30T11:27:13;7.10;99.90
43627;DHT22;29217;52.586;13.442;2024-01-30T11:29:40;6.90;99.90
43627;DHT22;29217;52.586;13.442;2024-01-30T11:32:06;7.10;99.90
43627;DHT22;29217;52.586;13.442;2024-01-30T11:34:33;7.20;99.90
43627;DHT22;29217;52.586;13.442;2024-01-30T11:37:03;7.40;99.90
43627;DHT22;29217;52.586;13.442;2024-01-30T11:39:32;7.30;99.90
43627;DHT22;29217;52.586;13.442;2024-01-30T11:49:18;7.20;99.90
43627;DHT22;29217;52.586;13.442;2024-01-30T11:51:45;7.40;99.90
43627;DHT22;29217;52.586;13.442;2024-01-30T11:54:11;7.50;99.90
43627;DHT22;29217;52.586;13.442;2024-01-30T11:56:37;7.60;99.90
43627;DHT22;29217;52.586;13.442;2024-01-30T12:03:58;7.50;99.90
43627;DHT22;29217;52.586;13.442;2024-01-30T12:06:24;7.70;99.90
43627;DHT22;29217;52.586;13.442;2024-01-30T12:09:00;7.50;99.90
43627;DHT22;29217;52.586;13.442;2024-01-30T12:11:26;7.80;99.90
43627;DHT22;29217;52.586;13.442;2024-01-30T12:13:53;7.70;99.90
43627;DHT22;29217;52.586;13.442;2024-01-30T12:18:46;7.80;99.90
43627;DHT22;29217;52.586;13.442;2024-01-30T12:23:38;7.80;99.90
43627;DHT22;29217;52.586;13.442;2024-01-30T12:26:04;7.90;99.90
43627;DHT22;29217;52.586;13.442;2024-01-30T12:28:32;8.00;99.90
43627;DHT22;29217;52.586;13.442;2024-01-30T12:31:02;8.00;99.90
43627;DHT22;29217;52.586;13.442;2024-01-30T12:33:29;8.00;99.90
43627;DHT22;29217;52.586;13.442;2024-01-30T12:35:55;8.20;99.90
43627;DHT22;29217;52.586;13.442;2024-01-30T12:38:21;8.40;99.90
43627;DHT22;29217;52.586;13.442;2024-01-30T12:40:47;8.30;99.90
43627;DHT22;29217;52.586;13.442;2024-01-30T12:43:16;8.40;99.90
43627;DHT22;29217;52.586;13.442;2024-01-30T12:45:42;8.50;99.90
43627;DHT22;29217;52.586;13.442;2024-01-30T12:48:08;8.60;99.90
43627;DHT22;29217;52.586;13.442;2024-01-30T12:50:34;8.20;99.90
43627;DHT22;29217;52.586;13.442;2024-01-30T12:53:00;8.30;99.90
43627;DHT22;29217;52.586;13.442;2024-01-30T12:55:25;8.40;99.90
43627;DHT22;29217;52.586;13.442;2024-01-30T12:57:54;8.30;99.90
43627;DHT22;29217;52.586;13.442;2024-01-30T13:00:20;8.50;99.90
43627;DHT22;29217;52.586;13.442;2024-01-30T13:02:45;8.60;99.90
43627;DHT22;29217;52.586;13.442;2024-01-30T13:05:12;8.70;99.90
43627;DHT22;29217;52.586;13.442;2024-01-30T13:07:38;8.60;99.90
43627;DHT22;29217;52.586;13.442;2024-01-30T13:10:04;8.80;99.90
43627;DHT22;29217;52.586;13.442;2024-01-30T13:12:30;8.70;99.90
43627;DHT22;29217;52.586;13.442;2024-01-30T13:14:57;8.70;99.90
43627;DHT22;29217;52.586;13.442;2024-01-30T13:17:24;8.80;99.90
43627;DHT22;29217;52.586;13.442;2024-01-30T13:19:49;8.80;99.90
43627;DHT22;29217;52.586;13.442;2024-01-30T13:22:15;8.70;99.90
43627;DHT22;29217;52.586;13.442;2024-01-30T13:24:41;8.60;99.90
43627;DHT22;29217;52.586;13.442;2024-01-30T13:27:07;8.90;99.90
43627;DHT22;29217;52.586;13.442;2024-01-30T13:29:33;8.50;99.90
43627;DHT22;29217;52.586;13.442;2024-01-30T13:31:58;8.60;99.90
43627;DHT22;29217;52.586;13.442;2024-01-30T13:34:24;8.30;99.90
43627;DHT22;29217;52.586;13.442;2024-01-30T13:36:50;8.40;99.90
43627;DHT22;29217;52.586;13.442;2024-01-30T13:39:16;8.30;99.90
43627;DHT22;29217;52.586;13.442;2024-01-30T13:41:42;8.30;99.90
43627;DHT22;29217;52.586;13.442;2024-01-30T13:44:08;8.20;99.90
43627;DHT22;29217;52.586;13.442;2024-01-30T13:46:34;8.20;99.90
43627;DHT22;29217;52.586;13.442;2024-01-30T13:49:00;8.30;99.90
43627;DHT22;29217;52.586;13.442;2024-01-30T13:51:26;8.10;99.90
43627;DHT22;29217;52.586;13.442;2024-01-30T13:53:51;8.10;99.90
43627;DHT22;29217;52.586;13.442;2024-01-30T13:56:17;8.20;99.90
43627;DHT22;29217;52.586;13.442;2024-01-30T13:58:42;8.10;99.90
43627;DHT22;29217;52.586;13.442;2024-01-30T14:01:08;8.20;99.90
43627;DHT22;29217;52.586;13.442;2024-01-30T14:03:35;8.00;99.90
43627;DHT22;29217;52.586;13.442;2024-01-30T14:06:01;8.30;99.90
43627;DHT22;29217;52.586;13.442;2024-01-30T14:08:26;8.20;99.90
43627;DHT22;29217;52.586;13.442;2024-01-30T14:10:54;8.20;99.90
43627;DHT22;29217;52.586;13.442;2024-01-30T14:13:20;8.20;99.90
43627;DHT22;29217;52.586;13.442;2024-01-30T14:15:48;8.20;99.90
43627;DHT22;29217;52.586;13.442;2024-01-30T14:18:15;8.10;99.90
43627;DHT22;29217;52.586;13.442;2024-01-30T14:20:40;8.30;99.90
43627;DHT22;29217;52.586;13.442;2024-01-30T14:23:06;8.10;99.90
43627;DHT22;29217;52.586;13.442;2024-01-30T14:25:32;8.30;99.90
43627;DHT22;29217;52.586;13.442;2024-01-30T14:27:58;8.00;99.90
43627;DHT22;29217;52.586;13.442;2024-01-30T14:30:23;8.00;99.90
43627;DHT22;29217;52.586;13.442;2024-01-30T14:32:49;8.00;99.90
43627;DHT22;29217;52.586;13.442;2024-01-30T14:35:15;7.90;99.90
43627;DHT22;29217;52.586;13.442;2024-01-30T14:37:41;8.00;99.90
43627;DHT22;29217;52.586;13.442;2024-01-30T14:40:07;8.20;99.90
43627;DHT22;29217;52.586;13.442;2024-01-30T14:42:33;8.00;99.90
43627;DHT22;29217;52.586;13.442;2024-01-30T14:44:58;7.90;99.90
43627;DHT22;29217;52.586;13.442;2024-01-30T14:47:24;7.80;99.90
43627;DHT22;29217;52.586;13.442;2024-01-30T14:49:51;7.90;99.90
43627;DHT22;29217;52.586;13.442;2024-01-30T14:52:17;7.80;99.90
43627;DHT22;29217;52.586;13.442;2024-01-30T14:54:43;8.00;99.90
43627;DHT22;29217;52.586;13.442;2024-01-30T14:57:09;8.00;99.90
43627;DHT22;29217;52.586;13.442;2024-01-30T14:59:35;8.00;99.90
43627;DHT22;29217;52.586;13.442;2024-01-30T15:02:00;7.70;99.90
43627;DHT22;29217;52.586;13.442;2024-01-30T15:04:26;7.80;99.90
43627;DHT22;29217;52.586;13.442;2024-01-30T15:06:52;7.70;99.90
43627;DHT22;29217;52.586;13.442;2024-01-30T15:09:18;7.80;99.90
43627;DHT22;29217;52.586;13.442;2024-01-30T15:11:46;7.80;99.90
43627;DHT22;29217;52.586;13.442;2024-01-30T15:14:12;7.50;99.90
43627;DHT22;29217;52.586;13.442;2024-01-30T15:16:38;7.60;99.90
43627;DHT22;29217;52.586;13.442;2024-01-30T15:19:04;7.70;99.90
43627;DHT22;29217;52.586;13.442;2024-01-30T15:21:30;7.80;99.90
43627;DHT22;29217;52.586;13.442;2024-01-30T15:23:56;7.60;99.90
43627;DHT22;29217;52.586;13.442;2024-01-30T15:26:22;7.70;99.90
43627;DHT22;29217;52.586;13.442;2024-01-30T15:28:47;7.60;99.90
43627;DHT22;29217;52.586;13.442;2024-01-30T15:31:13;7.60;99.90
43627;DHT22;29217;52.586;13.442;2024-01-30T15:33:38;7.60;99.90
43627;DHT22;29217;52.586;13.442;2024-01-30T15:36:04;7.30;99.90
43627;DHT22;29217;52.586;13.442;2024-01-30T15:38:30;7.30;99.90
43627;DHT22;29217;52.586;13.442;2024-01-30T15:40:56;7.50;99.90
43627;DHT22;29217;52.586;13.442;2024-01-30T15:43:22;7.50;99.90
43627;DHT22;29217;52.586;13.442;2024-01-30T15:45:49;7.20;99.90
43627;DHT22;29217;52.586;13.442;2024-01-30T15:48:19;7.20;99.90
43627;DHT22;29217;52.586;13.442;2024-01-30T15:50:45;7.20;99.90
43627;DHT22;29217;52.586;13.442;2024-01-30T15:53:11;7.20;99.90
43627;DHT22;29217;52.586;13.442;2024-01-30T15:55:39;7.40;99.90
43627;DHT22;29217;52.586;13.442;2024-01-30T15:58:05;7.20;99.90
43627;DHT22;29217;52.586;13.442;2024-01-30T16:00:32;7.30;99.90
43627;DHT22;29217;52.586;13.442;2024-01-30T16:02:57;7.20;99.90
43627;DHT22;29217;52.586;13.442;2024-01-30T16:05:23;7.30;99.90
43627;DHT22;29217;52.586;13.442;2024-01-30T16:07:49;7.20;99.90
43627;DHT22;29217;52.586;13.442;2024-01-30T16:10:15;7.20;99.90
43627;DHT22;29217;52.586;13.442;2024-01-30T16:12:45;7.20;99.90
43627;DHT22;29217;52.586;13.442;2024-01-30T16:15:14;7.00;99.90
43627;DHT22;29217;52.586;13.442;2024-01-30T16:17:41;6.90;99.90
43627;DHT22;29217;52.586;13.442;2024-01-30T16:20:07;7.20;99.90
43627;DHT22;29217;52.586;13.442;2024-01-30T16:22:33;6.90;99.90
43627;DHT22;29217;52.586;13.442;2024-01-30T16:24:59;7.00;99.90
43627;DHT22;29217;52.586;13.442;2024-01-30T16:27:25;7.20;99.90
43627;DHT22;29217;52.586;13.442;2024-01-30T16:29:50;7.30;99.90
43627;DHT22;29217;52.586;13.442;2024-01-30T16:32:16;7.20;99.90
43627;DHT22;29217;52.586;13.442;2024-01-30T16:34:42;7.00;99.90
43627;DHT22;29217;52.586;13.442;2024-01-30T16:37:08;7.10;99.90
43627;DHT22;29217;52.586;13.442;2024-01-30T16:39:33;7.30;99.90
43627;DHT22;29217;52.586;13.442;2024-01-30T16:41:59;7.40;99.90
43627;DHT22;29217;52.586;13.442;2024-01-30T16:44:25;7.30;99.90
43627;DHT22;29217;52.586;13.442;2024-01-30T16:46:50;6.90;99.90
43627;DHT22;29217;52.586;13.442;2024-01-30T16:49:16;7.00;99.90
43627;DHT22;29217;52.586;13.442;2024-01-30T16:51:42;6.90;99.90
43627;DHT22;29217;52.586;13.442;2024-01-30T16:54:08;7.00;99.90
43627;DHT22;29217;52.586;13.442;2024-01-30T16:56:34;6.90;99.90
43627;DHT22;29217;52.586;13.442;2024-01-30T16:58:59;7.10;99.90
43627;DHT22;29217;52.586;13.442;2024-01-30T17:01:25;6.80;99.90
43627;DHT22;29217;52.586;13.442;2024-01-30T17:03:51;7.00;99.90
43627;DHT22;29217;52.586;13.442;2024-01-30T17:06:16;6.90;99.90
43627;DHT22;29217;52.586;13.442;2024-01-30T17:08:42;6.70;99.90
43627;DHT22;29217;52.586;13.442;2024-01-30T17:11:07;6.60;99.90
43627;DHT22;29217;52.586;13.442;2024-01-30T17:13:37;6.60;99.90
43627;DHT22;29217;52.586;13.442;2024-01-30T17:16:02;6.60;99.90
43627;DHT22;29217;52.586;13.442;2024-01-30T17:18:30;6.80;99.90
43627;DHT22;29217;52.586;13.442;2024-01-30T17:20:56;6.80;99.90
43627;DHT22;29217;52.586;13.442;2024-01-30T17:23:21;6.80;99.90
43627;DHT22;29217;52.586;13.442;2024-01-30T17:25:50;6.80;99.90
43627;DHT22;29217;52.586;13.442;2024-01-30T17:28:16;7.00;99.90
43627;DHT22;29217;52.586;13.442;2024-01-30T17:30:42;6.90;99.90
43627;DHT22;29217;52.586;13.442;2024-01-30T17:33:07;7.00;99.90
43627;DHT22;29217;52.586;13.442;2024-01-30T17:35:33;6.90;99.90
43627;DHT22;29217;52.586;13.442;2024-01-30T17:37:59;7.10;99.90
43627;DHT22;29217;52.586;13.442;2024-01-30T17:40:25;7.00;99.90
43627;DHT22;29217;52.586;13.442;2024-01-30T17:42:50;6.70;99.90
43627;DHT22;29217;52.586;13.442;2024-01-30T17:45:16;6.70;99.90
43627;DHT22;29217;52.586;13.442;2024-01-30T17:47:42;6.90;99.90
43627;DHT22;29217;52.586;13.442;2024-01-30T17:50:07;7.00;99.90
43627;DHT22;29217;52.586;13.442;2024-01-30T17:52:33;7.00;99.90
43627;DHT22;29217;52.586;13.442;2024-01-30T17:54:59;7.10;99.90
43627;DHT22;29217;52.586;13.442;2024-01-30T17:57:24;7.00;99.90
43627;DHT22;29217;52.586;13.442;2024-01-30T17:59:50;7.00;99.90
43627;DHT22;29217;52.586;13.442;2024-01-30T18:02:16;7.30;99.90
43627;DHT22;29217;52.586;13.442;2024-01-30T18:04:41;7.40;99.90
43627;DHT22;29217;52.586;13.442;2024-01-30T18:07:08;7.50;99.90
43627;DHT22;29217;52.586;13.442;2024-01-30T18:09:33;7.60;99.90
43627;DHT22;29217;52.586;13.442;2024-01-30T18:11:59;7.30;99.90
43627;DHT22;29217;52.586;13.442;2024-01-30T18:14:25;7.40;99.90
43627;DHT22;29217;52.586;13.442;2024-01-30T18:16:51;7.70;99.90
43627;DHT22;29217;52.586;13.442;2024-01-30T18:19:17;7.50;99.90
43627;DHT22;29217;52.586;13.442;2024-01-30T18:21:43;7.40;99.90
43627;DHT22;29217;52.586;13.442;2024-01-30T18:24:09;7.70;99.90
43627;DHT22;29217;52.586;13.442;2024-01-30T18:26:35;7.50;99.90
43627;DHT22;29217;52.586;13.442;2024-01-30T18:29:01;7.50;99.90
43627;DHT22;29217;52.586;13.442;2024-01-30T18:31:27;7.60;99.90
43627;DHT22;29217;52.586;13.442;2024-01-30T18:33:52;7.50;99.90
43627;DHT22;29217;52.586;13.442;2024-01-30T18:36:23;7.60;99.90
43627;DHT22;29217;52.586;13.442;2024-01-30T18:38:49;7.30;99.90
43627;DHT22;29217;52.586;13.442;2024-01-30T18:41:16;7.30;99.90
43627;DHT22;29217;52.586;13.442;2024-01-30T18:43:42;7.70;99.90
43627;DHT22;29217;52.586;13.442;2024-01-30T18:46:08;7.70;99.90
43627;DHT22;29217;52.586;13.442;2024-01-30T18:48:35;7.70;99.90
43627;DHT22;29217;52.586;13.442;2024-01-30T18:51:02;7.80;99.90
43627;DHT22;29217;52.586;13.442;2024-01-30T18:53:27;7.90;99.90
43627;DHT22;29217;52.586;13.442;2024-01-30T18:55:53;7.60;99.90
43627;DHT22;29217;52.586;13.442;2024-01-30T18:58:19;7.90;99.90
43627;DHT22;29217;52.586;13.442;2024-01-30T19:00:44;7.80;99.90
43627;DHT22;29217;52.586;13.442;2024-01-30T19:03:10;8.00;99.90
43627;DHT22;29217;52.586;13.442;2024-01-30T19:05:36;7.90;99.90
43627;DHT22;29217;52.586;13.442;2024-01-30T19:08:02;7.90;99.90
43627;DHT22;29217;52.586;13.442;2024-01-30T19:10:28;8.00;99.90
43627;DHT22;29217;52.586;13.442;2024-01-30T19:12:54;8.10;99.90
43627;DHT22;29217;52.586;13.442;2024-01-30T19:15:20;8.20;99.90
43627;DHT22;29217;52.586;13.442;2024-01-30T19:17:45;8.10;99.90
43627;DHT22;29217;52.586;13.442;2024-01-30T19:20:11;8.10;99.90
43627;DHT22;29217;52.586;13.442;2024-01-30T19:22:37;8.10;99.90
43627;DHT22;29217;52.586;13.442;2024-01-30T19:25:03;8.00;99.90
43627;DHT22;29217;52.586;13.442;2024-01-30T19:27:30;8.00;99.90
43627;DHT22;29217;52.586;13.442;2024-01-30T19:29:56;8.00;99.90
43627;DHT22;29217;52.586;13.442;2024-01-30T19:32:23;8.20;99.90
43627;DHT22;29217;52.586;13.442;2024-01-30T19:34:48;8.00;99.90
43627;DHT22;29217;52.586;13.442;2024-01-30T19:37:15;8.20;99.90
43627;DHT22;29217;52.586;13.442;2024-01-30T19:39:41;7.90;99.90
43627;DHT22;29217;52.586;13.442;2024-01-30T19:42:06;8.00;99.90
43627;DHT22;29217;52.586;13.442;2024-01-30T19:44:32;8.00;99.90
43627;DHT22;29217;52.586;13.442;2024-01-30T19:46:57;8.00;99.90
43627;DHT22;29217;52.586;13.442;2024-01-30T19:49:28;8.10;99.90
43627;DHT22;29217;52.586;13.442;2024-01-30T19:51:56;8.20;99.90
43627;DHT22;29217;52.586;13.442;2024-01-30T19:54:29;8.00;99.90
43627;DHT22;29217;52.586;13.442;2024-01-30T19:56:55;8.10;99.90
43627;DHT22;29217;52.586;13.442;2024-01-30T19:59:20;8.10;99.90
43627;DHT22;29217;52.586;13.442;2024-01-30T20:01:46;7.90;99.90
43627;DHT22;29217;52.586;13.442;2024-01-30T20:04:11;7.90;99.90
43627;DHT22;29217;52.586;13.442;2024-01-30T20:06:37;7.80;99.90
43627;DHT22;29217;52.586;13.442;2024-01-30T20:09:03;8.00;99.90
43627;DHT22;29217;52.586;13.442;2024-01-30T20:11:29;8.10;99.90
43627;DHT22;29217;52.586;13.442;2024-01-30T20:13:55;7.80;99.90
43627;DHT22;29217;52.586;13.442;2024-01-30T20:16:20;8.00;99.90
43627;DHT22;29217;52.586;13.442;2024-01-30T20:18:46;7.90;99.90
43627;DHT22;29217;52.586;13.442;2024-01-30T20:21:11;8.10;99.90
43627;DHT22;29217;52.586;13.442;2024-01-30T20:23:37;7.80;99.90
43627;DHT22;29217;52.586;13.442;2024-01-30T20:26:04;7.90;99.90
43627;DHT22;29217;52.586;13.442;2024-01-30T20:28:29;7.80;99.90
43627;DHT22;29217;52.586;13.442;2024-01-30T20:33:21;7.50;99.90
43627;DHT22;29217;52.586;13.442;2024-01-30T20:35:46;7.80;99.90
43627;DHT22;29217;52.586;13.442;2024-01-30T20:38:12;7.70;99.90
43627;DHT22;29217;52.586;13.442;2024-01-30T20:40:39;7.70;99.90
43627;DHT22;29217;52.586;13.442;2024-01-30T20:43:04;7.80;99.90
43627;DHT22;29217;52.586;13.442;2024-01-30T20:45:30;7.70;99.90
43627;DHT22;29217;52.586;13.442;2024-01-30T20:47:56;7.60;99.90
43627;DHT22;29217;52.586;13.442;2024-01-30T20:50:21;7.80;99.90
43627;DHT22;29217;52.586;13.442;2024-01-30T20:52:47;7.80;99.90
43627;DHT22;29217;52.586;13.442;2024-01-30T20:55:12;7.90;99.90
43627;DHT22;29217;52.586;13.442;2024-01-30T20:57:38;7.70;99.90
43627;DHT22;29217;52.586;13.442;2024-01-30T21:00:05;7.80;99.90
43627;DHT22;29217;52.586;13.442;2024-01-30T21:02:31;7.70;99.90
43627;DHT22;29217;52.586;13.442;2024-01-30T21:04:57;7.80;99.90
43627;DHT22;29217;52.586;13.442;2024-01-30T21:07:23;7.80;99.90
43627;DHT22;29217;52.586;13.442;2024-01-30T21:09:48;7.70;99.90
43627;DHT22;29217;52.586;13.442;2024-01-30T21:12:16;7.60;99.90
43627;DHT22;29217;52.586;13.442;2024-01-30T21:14:41;7.80;99.90
43627;DHT22;29217;52.586;13.442;2024-01-30T21:17:07;7.70;99.90
43627;DHT22;29217;52.586;13.442;2024-01-30T21:19:33;7.80;99.90
43627;DHT22;29217;52.586;13.442;2024-01-30T21:21:59;7.70;99.90
43627;DHT22;29217;52.586;13.442;2024-01-30T21:24:24;7.60;99.90
43627;DHT22;29217;52.586;13.442;2024-01-30T21:26:50;7.60;99.90
43627;DHT22;29217;52.586;13.442;2024-01-30T21:29:15;7.70;99.90
43627;DHT22;29217;52.586;13.442;2024-01-30T21:31:44;7.70;99.90
43627;DHT22;29217;52.586;13.442;2024-01-30T21:34:11;7.70;99.90
43627;DHT22;29217;52.586;13.442;2024-01-30T21:36:37;7.80;99.90
43627;DHT22;29217;52.586;13.442;2024-01-30T21:39:02;7.80;99.90
43627;DHT22;29217;52.586;13.442;2024-01-30T21:41:28;7.80;99.90
43627;DHT22;29217;52.586;13.442;2024-01-30T21:43:55;8.00;99.90
43627;DHT22;29217;52.586;13.442;2024-01-30T21:46:27;8.00;99.90
43627;DHT22;29217;52.586;13.442;2024-01-30T21:48:53;8.00;99.90
43627;DHT22;29217;52.586;13.442;2024-01-30T21:51:19;8.00;99.90
43627;DHT22;29217;52.586;13.442;2024-01-30T21:53:45;8.10;99.90
43627;DHT22;29217;52.586;13.442;2024-01-30T21:56:10;8.00;99.90
43627;DHT22;29217;52.586;13.442;2024-01-30T21:58:36;8.00;99.90
43627;DHT22;29217;52.586;13.442;2024-01-30T22:01:01;8.10;99.90
43627;DHT22;29217;52.586;13.442;2024-01-30T22:03:27;8.00;99.90
43627;DHT22;29217;52.586;13.442;2024-01-30T22:05:53;8.00;99.90
43627;DHT22;29217;52.586;13.442;2024-01-30T22:08:19;8.10;99.90
43627;DHT22;29217;52.586;13.442;2024-01-30T22:10:44;8.10;99.90
43627;DHT22;29217;52.586;13.442;2024-01-30T22:13:10;7.90;99.90
43627;DHT22;29217;52.586;13.442;2024-01-30T22:15:36;7.80;99.90
43627;DHT22;29217;52.586;13.442;2024-01-30T22:18:05;7.80;99.90
43627;DHT22;29217;52.586;13.442;2024-01-30T22:20:31;7.80;99.90
43627;DHT22;29217;52.586;13.442;2024-01-30T22:25:23;7.80;99.90
43627;DHT22;29217;52.586;13.442;2024-01-30T22:27:49;7.90;99.90
43627;DHT22;29217;52.586;13.442;2024-01-30T22:30:14;8.00;99.90
43627;DHT22;29217;52.586;13.442;2024-01-30T22:32:40;8.00;99.90
43627;DHT22;29217;52.586;13.442;2024-01-30T22:35:06;8.20;99.90
43627;DHT22;29217;52.586;13.442;2024-01-30T22:37:36;8.20;99.90
43627;DHT22;29217;52.586;13.442;2024-01-30T22:40:03;8.40;99.90
43627;DHT22;29217;52.586;13.442;2024-01-30T22:42:29;8.30;99.90
43627;DHT22;29217;52.586;13.442;2024-01-30T22:44:54;8.40;99.90
43627;DHT22;29217;52.586;13.442;2024-01-30T22:47:20;8.40;99.90
43627;DHT22;29217;52.586;13.442;2024-01-30T22:49:46;8.30;99.90
43627;DHT22;29217;52.586;13.442;2024-01-30T22:52:11;8.50;99.90
43627;DHT22;29217;52.586;13.442;2024-01-30T22:54:37;8.50;99.90
43627;DHT22;29217;52.586;13.442;2024-01-30T22:57:02;8.40;99.90
43627;DHT22;29217;52.586;13.442;2024-01-30T23:01:54;8.10;99.90
43627;DHT22;29217;52.586;13.442;2024-01-30T23:04:19;8.40;99.90
43627;DHT22;29217;52.586;13.442;2024-01-30T23:06:45;8.10;99.90
43627;DHT22;29217;52.586;13.442;2024-01-30T23:09:11;8.50;99.90
43627;DHT22;29217;52.586;13.442;2024-01-30T23:11:40;8.30;99.90
43627;DHT22;29217;52.586;13.442;2024-01-30T23:21:25;8.20;99.90
43627;DHT22;29217;52.586;13.442;2024-01-30T23:23:50;8.30;99.90
43627;DHT22;29217;52.586;13.442;2024-01-30T23:26:16;8.20;99.90
43627;DHT22;29217;52.586;13.442;2024-01-30T23:28:42;8.20;99.90
43627;DHT22;29217;52.586;13.442;2024-01-30T23:31:08;8.10;99.90
43627;DHT22;29217;52.586;13.442;2024-01-30T23:33:34;8.20;99.90
43627;DHT22;29217;52.586;13.442;2024-01-30T23:36:00;8.10;99.90
43627;DHT22;29217;52.586;13.442;2024-01-30T23:38:25;8.10;99.90
43627;DHT22;29217;52.586;13.442;2024-01-30T23:40:51;8.10;99.90
43627;DHT22;29217;52.586;13.442;2024-01-30T23:43:17;8.20;99.90
43627;DHT22;29217;52.586;13.442;2024-01-30T23:45:43;8.10;99.90
43627;DHT22;29217;52.586;13.442;2024-01-30T23:48:10;8.20;99.90
43627;DHT22;29217;52.586;13.442;2024-01-30T23:50:35;8.20;99.90
43627;DHT22;29217;52.586;13.442;2024-01-30T23:53:02;8.40;99.90
43627;DHT22;29217;52.586;13.442;2024-01-30T23:55:28;8.40;99.90
43627;DHT22;29217;52.586;13.442;2024-01-30T23:57:54;8.40;99.90
